sensor_id;sensor_type;location;lat;lon;timestamp;pressure;altitude;pressure_sealevel;temperature;humidity
84169;BME280;74295;50.146;8.794;2024-03-02T00:01:57;99606.38;;;3.71;92.83
84169;BME280;74295;50.146;8.794;2024-03-02T00:12:00;99607.28;;;3.65;92.56
84169;BME280;74295;50.146;8.794;2024-03-02T00:22:04;99595.63;;;3.53;93.31
84169;BME280;74295;50.146;8.794;2024-03-02T00:32:12;99589.50;;;3.46;92.98
84169;BME280;74295;50.146;8.794;2024-03-02T00:42:17;99580.72;;;3.32;93.34
84169;BME280;74295;50.146;8.794;2024-03-02T00:52:20;99565.88;;;3.36;93.61
84169;BME280;74295;50.146;8.794;2024-03-02T01:02:24;99567.31;;;3.39;93.87
84169;BME280;74295;50.146;8.794;2024-03-02T01:12:26;99567.31;;;3.39;93.57
84169;BME280;74295;50.146;8.794;2024-03-02T01:22:30;99582.84;;;3.24;94.03
84169;BME280;74295;50.146;8.794;2024-03-02T01:32:33;99589.47;;;3.21;93.50
84169;BME280;74295;50.146;8.794;2024-03-02T01:42:37;99597.22;;;3.05;94.02
84169;BME280;74295;50.146;8.794;2024-03-02T01:52:40;99586.75;;;2.97;94.58
84169;BME280;74295;50.146;8.794;2024-03-02T02:02:45;99569.53;;;2.86;94.38
84169;BME280;74295;50.146;8.794;2024-03-02T02:12:48;99553.47;;;2.86;94.39
84169;BME280;74295;50.146;8.794;2024-03-02T02:22:56;99539.25;;;2.92;95.33
84169;BME280;74295;50.146;8.794;2024-03-02T02:32:59;99530.69;;;2.77;95.36
84169;BME280;74295;50.146;8.794;2024-03-02T02:43:03;99533.47;;;2.57;95.00
84169;BME280;74295;50.146;8.794;2024-03-02T02:53:06;99532.28;;;2.47;96.04
84169;BME280;74295;50.146;8.794;2024-03-02T03:03:12;99524.31;;;2.40;96.04
84169;BME280;74295;50.146;8.794;2024-03-02T03:13:15;99519.81;;;2.34;95.23
84169;BME280;74295;50.146;8.794;2024-03-02T03:23:19;99513.06;;;2.25;95.81
84169;BME280;74295;50.146;8.794;2024-03-02T03:33:22;99510.63;;;2.17;95.11
84169;BME280;74295;50.146;8.794;2024-03-02T03:43:26;99508.63;;;2.06;95.21
84169;BME280;74295;50.146;8.794;2024-03-02T03:53:29;99504.56;;;1.97;95.14
84169;BME280;74295;50.146;8.794;2024-03-02T04:03:33;99516.06;;;1.98;95.40
84169;BME280;74295;50.146;8.794;2024-03-02T04:13:35;99532.09;;;1.91;95.82
84169;BME280;74295;50.146;8.794;2024-03-02T04:23:39;99522.47;;;1.90;95.16
84169;BME280;74295;50.146;8.794;2024-03-02T04:33:42;99511.97;;;1.89;94.40
84169;BME280;74295;50.146;8.794;2024-03-02T04:43:46;99516.31;;;1.83;95.51
84169;BME280;74295;50.146;8.794;2024-03-02T04:53:49;99525.56;;;1.87;95.80
84169;BME280;74295;50.146;8.794;2024-03-02T05:03:53;99536.25;;;1.87;95.44
84169;BME280;74295;50.146;8.794;2024-03-02T05:13:55;99532.13;;;1.85;94.73
84169;BME280;74295;50.146;8.794;2024-03-02T05:23:59;99536.44;;;1.86;95.58
84169;BME280;74295;50.146;8.794;2024-03-02T05:34:02;99541.53;;;1.94;96.38
84169;BME280;74295;50.146;8.794;2024-03-02T05:44:08;99560.91;;;1.83;95.50
84169;BME280;74295;50.146;8.794;2024-03-02T05:54:11;99573.03;;;1.85;95.79
84169;BME280;74295;50.146;8.794;2024-03-02T06:04:15;99580.84;;;1.87;95.50
84169;BME280;74295;50.146;8.794;2024-03-02T06:14:17;99578.75;;;1.95;94.43
84169;BME280;74295;50.146;8.794;2024-03-02T06:24:21;99583.75;;;2.42;94.31
84169;BME280;74295;50.146;8.794;2024-03-02T06:34:24;99597.69;;;2.57;93.72
84169;BME280;74295;50.146;8.794;2024-03-02T06:44:28;99610.84;;;2.59;93.56
84169;BME280;74295;50.146;8.794;2024-03-02T06:54:31;99615.88;;;2.80;94.22
84169;BME280;74295;50.146;8.794;2024-03-02T07:04:35;99612.16;;;3.19;93.87
84169;BME280;74295;50.146;8.794;2024-03-02T07:14:38;99615.56;;;3.57;93.44
84169;BME280;74295;50.146;8.794;2024-03-02T07:24:59;99620.81;;;3.94;93.22
84169;BME280;74295;50.146;8.794;2024-03-02T07:35:02;99629.78;;;4.24;92.39
84169;BME280;74295;50.146;8.794;2024-03-02T07:45:07;99628.81;;;4.55;92.65
84169;BME280;74295;50.146;8.794;2024-03-02T07:55:10;99623.34;;;4.79;92.27
84169;BME280;74295;50.146;8.794;2024-03-02T08:05:14;99631.34;;;4.68;91.47
84169;BME280;74295;50.146;8.794;2024-03-02T08:15:17;99641.91;;;4.81;93.04
84169;BME280;74295;50.146;8.794;2024-03-02T08:25:24;99638.13;;;5.71;90.15
84169;BME280;74295;50.146;8.794;2024-03-02T08:35:27;99637.22;;;6.46;88.63
84169;BME280;74295;50.146;8.794;2024-03-02T08:45:31;99652.38;;;7.14;85.39
84169;BME280;74295;50.146;8.794;2024-03-02T08:55:35;99659.03;;;7.84;83.76
84169;BME280;74295;50.146;8.794;2024-03-02T09:05:39;99670.88;;;8.50;80.87
84169;BME280;74295;50.146;8.794;2024-03-02T09:15:42;99661.69;;;8.89;78.15
84169;BME280;74295;50.146;8.794;2024-03-02T09:25:47;99657.63;;;9.34;76.74
84169;BME280;74295;50.146;8.794;2024-03-02T09:35:50;99644.16;;;9.71;75.13
84169;BME280;74295;50.146;8.794;2024-03-02T09:45:56;99645.78;;;9.98;73.03
84169;BME280;74295;50.146;8.794;2024-03-02T09:55:59;99642.69;;;10.16;72.21
84169;BME280;74295;50.146;8.794;2024-03-02T10:06:23;99643.47;;;10.54;70.97
84169;BME280;74295;50.146;8.794;2024-03-02T10:16:26;99632.50;;;10.80;69.94
84169;BME280;74295;50.146;8.794;2024-03-02T10:26:30;99628.44;;;10.88;69.75
84169;BME280;74295;50.146;8.794;2024-03-02T10:36:33;99620.94;;;11.10;68.54
84169;BME280;74295;50.146;8.794;2024-03-02T10:46:38;99604.66;;;11.15;68.20
84169;BME280;74295;50.146;8.794;2024-03-02T10:56:43;99599.50;;;11.08;67.45
84169;BME280;74295;50.146;8.794;2024-03-02T11:06:49;99585.88;;;10.93;67.11
84169;BME280;74295;50.146;8.794;2024-03-02T11:16:53;99569.16;;;11.11;66.12
84169;BME280;74295;50.146;8.794;2024-03-02T11:26:57;99573.56;;;11.62;64.25
84169;BME280;74295;50.146;8.794;2024-03-02T11:37:01;99573.56;;;11.77;63.13
84169;BME280;74295;50.146;8.794;2024-03-02T11:47:07;99562.97;;;12.01;60.33
84169;BME280;74295;50.146;8.794;2024-03-02T11:57:10;99530.09;;;12.02;59.84
84169;BME280;74295;50.146;8.794;2024-03-02T12:07:18;99516.16;;;12.34;60.96
84169;BME280;74295;50.146;8.794;2024-03-02T12:17:22;99511.78;;;12.33;58.41
84169;BME280;74295;50.146;8.794;2024-03-02T12:27:26;99487.28;;;12.43;58.27
84169;BME280;74295;50.146;8.794;2024-03-02T12:37:29;99482.03;;;12.61;54.74
84169;BME280;74295;50.146;8.794;2024-03-02T12:47:33;99468.88;;;12.78;55.76
84169;BME280;74295;50.146;8.794;2024-03-02T12:57:36;99463.88;;;13.01;56.75
84169;BME280;74295;50.146;8.794;2024-03-02T13:07:43;99450.16;;;13.16;55.49
84169;BME280;74295;50.146;8.794;2024-03-02T13:17:46;99440.09;;;13.16;55.83
84169;BME280;74295;50.146;8.794;2024-03-02T13:27:51;99438.63;;;13.29;54.62
84169;BME280;74295;50.146;8.794;2024-03-02T13:37:53;99418.03;;;13.46;53.71
84169;BME280;74295;50.146;8.794;2024-03-02T13:47:57;99408.16;;;13.79;51.26
84169;BME280;74295;50.146;8.794;2024-03-02T13:58:00;99396.13;;;13.85;51.29
84169;BME280;74295;50.146;8.794;2024-03-02T14:08:05;99382.22;;;13.86;52.90
84169;BME280;74295;50.146;8.794;2024-03-02T14:18:08;99374.66;;;14.02;51.19
84169;BME280;74295;50.146;8.794;2024-03-02T14:28:13;99370.03;;;13.55;53.83
84169;BME280;74295;50.146;8.794;2024-03-02T14:38:37;99353.63;;;13.37;54.70
84169;BME280;74295;50.146;8.794;2024-03-02T14:48:43;99356.47;;;13.22;55.62
84169;BME280;74295;50.146;8.794;2024-03-02T14:58:47;99342.25;;;13.77;53.78
84169;BME280;74295;50.146;8.794;2024-03-02T15:08:50;99348.72;;;14.28;53.05
84169;BME280;74295;50.146;8.794;2024-03-02T15:18:55;99322.06;;;14.01;51.30
84169;BME280;74295;50.146;8.794;2024-03-02T15:28:59;99322.97;;;13.73;52.65
84169;BME280;74295;50.146;8.794;2024-03-02T15:39:02;99308.91;;;13.66;52.48
84169;BME280;74295;50.146;8.794;2024-03-02T15:49:11;99305.97;;;13.81;52.54
84169;BME280;74295;50.146;8.794;2024-03-02T15:59:14;99293.69;;;13.84;51.94
84169;BME280;74295;50.146;8.794;2024-03-02T16:09:18;99290.06;;;13.70;52.14
84169;BME280;74295;50.146;8.794;2024-03-02T16:19:21;99294.88;;;13.31;53.63
84169;BME280;74295;50.146;8.794;2024-03-02T16:29:34;99297.78;;;12.82;56.33
84169;BME280;74295;50.146;8.794;2024-03-02T16:39:37;99290.53;;;12.39;59.28
84169;BME280;74295;50.146;8.794;2024-03-02T16:49:43;99288.56;;;12.06;60.03
84169;BME280;74295;50.146;8.794;2024-03-02T16:59:46;99302.53;;;11.84;60.98
84169;BME280;74295;50.146;8.794;2024-03-02T17:09:50;99313.91;;;11.91;61.50
84169;BME280;74295;50.146;8.794;2024-03-02T17:19:54;99312.44;;;11.65;62.80
84169;BME280;74295;50.146;8.794;2024-03-02T17:29:58;99315.16;;;11.50;64.13
84169;BME280;74295;50.146;8.794;2024-03-02T17:40:01;99317.63;;;11.42;64.68
84169;BME280;74295;50.146;8.794;2024-03-02T17:50:08;99311.97;;;11.28;65.24
84169;BME280;74295;50.146;8.794;2024-03-02T18:00:12;99306.25;;;11.40;65.96
84169;BME280;74295;50.146;8.794;2024-03-02T18:10:17;99318.22;;;11.19;66.34
84169;BME280;74295;50.146;8.794;2024-03-02T18:20:19;99322.84;;;11.03;67.21
84169;BME280;74295;50.146;8.794;2024-03-02T18:30:23;99309.59;;;10.77;68.10
84169;BME280;74295;50.146;8.794;2024-03-02T18:40:26;99305.00;;;10.62;69.35
84169;BME280;74295;50.146;8.794;2024-03-02T18:50:30;99305.53;;;10.59;70.04
84169;BME280;74295;50.146;8.794;2024-03-02T19:00:34;99288.22;;;10.60;70.29
84169;BME280;74295;50.146;8.794;2024-03-02T19:10:38;99292.28;;;10.63;70.58
84169;BME280;74295;50.146;8.794;2024-03-02T19:20:41;99291.44;;;10.52;71.29
84169;BME280;74295;50.146;8.794;2024-03-02T19:30:46;99279.28;;;10.35;71.76
84169;BME280;74295;50.146;8.794;2024-03-02T19:40:50;99260.84;;;10.21;72.30
84169;BME280;74295;50.146;8.794;2024-03-02T19:50:56;99263.81;;;10.35;71.48
84169;BME280;74295;50.146;8.794;2024-03-02T20:00:59;99254.63;;;10.26;71.82
84169;BME280;74295;50.146;8.794;2024-03-02T20:11:04;99263.00;;;10.14;71.78
84169;BME280;74295;50.146;8.794;2024-03-02T20:21:06;99265.69;;;10.09;72.09
84169;BME280;74295;50.146;8.794;2024-03-02T20:31:10;99283.81;;;10.09;72.11
84169;BME280;74295;50.146;8.794;2024-03-02T20:41:15;99286.47;;;9.89;72.86
84169;BME280;74295;50.146;8.794;2024-03-02T20:51:20;99286.16;;;9.70;73.73
84169;BME280;74295;50.146;8.794;2024-03-02T21:01:22;99291.72;;;9.44;74.53
84169;BME280;74295;50.146;8.794;2024-03-02T21:11:26;99292.00;;;8.96;76.62
84169;BME280;74295;50.146;8.794;2024-03-02T21:21:29;99295.19;;;8.51;78.34
84169;BME280;74295;50.146;8.794;2024-03-02T21:31:34;99279.16;;;8.40;78.25
84169;BME280;74295;50.146;8.794;2024-03-02T21:41:37;99278.09;;;8.14;79.91
84169;BME280;74295;50.146;8.794;2024-03-02T21:51:41;99259.38;;;8.29;79.20
84169;BME280;74295;50.146;8.794;2024-03-02T22:01:44;99257.69;;;8.23;79.29
84169;BME280;74295;50.146;8.794;2024-03-02T22:11:48;99241.97;;;8.20;80.03
84169;BME280;74295;50.146;8.794;2024-03-02T22:21:51;99251.28;;;8.29;79.11
84169;BME280;74295;50.146;8.794;2024-03-02T22:31:55;99250.53;;;7.80;80.61
84169;BME280;74295;50.146;8.794;2024-03-02T22:41:58;99262.66;;;7.56;81.67
84169;BME280;74295;50.146;8.794;2024-03-02T22:52:02;99283.41;;;7.13;83.13
84169;BME280;74295;50.146;8.794;2024-03-02T23:02:05;99278.22;;;6.90;84.18
84169;BME280;74295;50.146;8.794;2024-03-02T23:12:11;99274.00;;;6.77;84.31
84169;BME280;74295;50.146;8.794;2024-03-02T23:22:14;99264.25;;;6.55;84.94
84169;BME280;74295;50.146;8.794;2024-03-02T23:32:18;99261.44;;;6.28;86.26
84169;BME280;74295;50.146;8.794;2024-03-02T23:42:20;99253.50;;;6.22;87.15
84169;BME280;74295;50.146;8.794;2024-03-02T23:52:24;99268.09;;;6.26;87.94
